»·PEaware :: DCM2499 KLAS-KSNA

DCM2499 :: KLAS-KSNA

FLIGHT INFORMATION

Flight Status: Arrived
Operator:
DotCom
More flights by this operator :: More flights under this callsign
Pilot: Alec D. (17934)
Aircraft: GATES LEARJET LEARJET 35/36
(LJ35)
More flights by this aircraft type
Origin: KLAS McCarran Intl
United States
Destination: KSNA John Wayne-Orange Co
United States
More flights between these airports :: More routes between these airports
Route: +BOACH8 WHIGG FEYLA DSNEE4
File this flight plan on PilotEdge
Remarks:
Altitude:
(Current/Filed)
28,000ft
Speed:
(Current/Filed)
440kts
Departed: 30-Dec-19 01:03 PM
Arrived: 30-Dec-19 01:47 PM
Distance/Time
Traveled:
197nm/0:44
Distance/Time
To Go:
Arrived

Flight Plot

Page will automatically refresh every two minutes.

Flight plan parsing failed; only flown route is shown


Map Options




Map Legend


Flown Route
Filed Route
Departure Airport
Arrival Airport
Navaid (VOR, NDB)
Fix

Horizontal Profiles

Position Reports

Time Latitude Longitude Heading Altitude Ground
Speed
30-Dec-19 12:35 36.081938 -115.170121 96 2184ft 0kts
30-Dec-19 12:36 36.081938 -115.170121 96 2184ft 0kts
30-Dec-19 12:37 36.081938 -115.170121 96 2184ft 0kts
30-Dec-19 12:38 36.081938 -115.170121 96 2184ft 0kts
30-Dec-19 12:39 36.081938 -115.170121 96 2184ft 0kts
30-Dec-19 12:40 36.081938 -115.170121 96 2184ft 0kts
30-Dec-19 12:41 36.081938 -115.170121 96 2184ft 0kts
30-Dec-19 12:42 36.081938 -115.170121 96 2184ft 0kts
30-Dec-19 12:43 36.081938 -115.170121 96 2184ft 0kts
30-Dec-19 12:44 36.081938 -115.170121 96 2184ft 0kts
30-Dec-19 12:45 36.081938 -115.170120 96 2184ft 0kts
30-Dec-19 12:46 36.081938 -115.170120 96 2184ft 0kts
30-Dec-19 12:47 36.081938 -115.170120 96 2184ft 0kts
30-Dec-19 12:48 36.081938 -115.170120 96 2184ft 0kts
30-Dec-19 12:49 36.081938 -115.170120 96 2184ft 0kts
30-Dec-19 12:50 36.081938 -115.170120 96 2184ft 0kts
30-Dec-19 12:51 36.081938 -115.170120 96 2184ft 0kts
30-Dec-19 12:52 36.081938 -115.170120 96 2184ft 0kts
30-Dec-19 12:53 36.081938 -115.170120 96 2184ft 0kts
30-Dec-19 12:54 36.081938 -115.170120 96 2184ft 0kts
30-Dec-19 12:55 36.081938 -115.170120 96 2184ft 0kts
30-Dec-19 12:56 36.081938 -115.170120 96 2184ft 0kts
30-Dec-19 12:57 36.081863 -115.169792 131 2184ft 5kts
30-Dec-19 12:58 36.080144 -115.169858 203 2184ft 0kts
30-Dec-19 12:59 36.077894 -115.170079 108 2184ft 6kts
30-Dec-19 13:00 36.077874 -115.169980 100 2184ft 0kts
30-Dec-19 13:01 36.077873 -115.169972 100 2184ft 0kts
30-Dec-19 13:02 36.081945 -115.166392 23 2184ft 77kts
30-Dec-19 13:03 36.117759 -115.153408 336 3410ft 172kts
30-Dec-19 13:04 36.120801 -115.212406 257 5426ft 210kts
30-Dec-19 13:05 36.105258 -115.283621 234 7980ft 223kts
30-Dec-19 13:07 36.044285 -115.318615 202 9288ft 264kts
30-Dec-19 13:08 35.975282 -115.352193 200 9957ft 265kts
30-Dec-19 13:09 35.901756 -115.380122 173 11930ft 289kts
30-Dec-19 13:10 35.823599 -115.350983 161 14309ft 299kts
30-Dec-19 13:11 35.743320 -115.319893 161 16456ft 305kts
30-Dec-19 13:12 35.661315 -115.317704 216 18459ft 317kts
30-Dec-19 13:13 35.600821 -115.398784 226 20253ft 325kts
30-Dec-19 13:14 35.539140 -115.481883 226 21760ft 332kts
30-Dec-19 13:15 35.476181 -115.566587 226 23315ft 341kts
30-Dec-19 13:16 35.411622 -115.653680 226 25207ft 348kts
30-Dec-19 13:17 35.345898 -115.742028 226 26814ft 352kts
30-Dec-19 13:18 35.279151 -115.831500 226 28074ft 366kts
30-Dec-19 13:19 35.209741 -115.923780 225 28163ft 374kts
30-Dec-19 13:20 35.134783 -116.017755 224 28143ft 393kts
30-Dec-19 13:21 35.058547 -116.113616 225 28142ft 394kts
30-Dec-19 13:22 34.982280 -116.209315 224 28166ft 392kts
30-Dec-19 13:23 34.906180 -116.304538 224 28169ft 391kts
30-Dec-19 13:24 34.830703 -116.400140 225 28075ft 391kts
30-Dec-19 13:25 34.756482 -116.494632 225 26487ft 383kts
30-Dec-19 13:26 34.681367 -116.586172 220 25160ft 378kts
30-Dec-19 13:27 34.600134 -116.666129 218 23963ft 376kts
30-Dec-19 13:28 34.518485 -116.745926 218 22341ft 374kts
30-Dec-19 13:28 34.455793 -116.815767 222 20758ft 363kts
30-Dec-19 13:30 34.375995 -116.908515 222 17935ft 326kts
30-Dec-19 13:30 34.321889 -116.971082 222 15876ft 318kts
30-Dec-19 13:31 34.256571 -117.040896 211 14090ft 304kts
30-Dec-19 13:32 34.185728 -117.092208 207 12359ft 293kts
30-Dec-19 13:33 34.111619 -117.134644 201 12045ft 302kts
30-Dec-19 13:34 34.033954 -117.176214 201 12039ft 299kts
30-Dec-19 13:35 33.970886 -117.232543 227 10978ft 284kts
30-Dec-19 13:36 33.919774 -117.303822 227 9664ft 281kts
30-Dec-19 13:37 33.869018 -117.375619 228 8368ft 282kts
30-Dec-19 13:38 33.819923 -117.447524 237 8031ft 273kts
30-Dec-19 13:39 33.796053 -117.531539 266 7671ft 267kts
30-Dec-19 13:40 33.803044 -117.617872 282 7241ft 235kts
30-Dec-19 13:41 33.814731 -117.691652 267 5720ft 217kts
30-Dec-19 13:42 33.798640 -117.760832 248 4040ft 214kts
30-Dec-19 13:43 33.767323 -117.815414 206 2419ft 187kts
30-Dec-19 13:44 33.726141 -117.837635 205 1030ft 147kts
30-Dec-19 13:45 33.691110 -117.859201 203 276ft 138kts
30-Dec-19 13:46 33.671183 -117.871677 206 59ft 29kts
30-Dec-19 13:47 33.669147 -117.872182 124 59ft 2kts
30-Dec-19 13:48 33.667070 -117.872971 205 59ft 13kts
30-Dec-19 13:49 33.666922 -117.872639 31 59ft 0kts
30-Dec-19 13:50 33.666922 -117.872639 31 59ft 0kts
30-Dec-19 13:51 33.666922 -117.872639 31 59ft 0kts
30-Dec-19 13:52 33.666922 -117.872639 31 59ft 0kts
30-Dec-19 13:53 33.666922 -117.872639 31 59ft 0kts
30-Dec-19 13:54 33.666922 -117.872639 31 59ft 0kts
30-Dec-19 13:55 33.666922 -117.872639 31 59ft 0kts
30-Dec-19 13:56 33.666922 -117.872639 31 59ft 0kts
30-Dec-19 13:57 33.666922 -117.872639 31 59ft 0kts
30-Dec-19 13:58 33.666922 -117.872639 31 59ft 0kts
30-Dec-19 13:59 33.666922 -117.872639 31 59ft 0kts
30-Dec-19 14:00 33.666922 -117.872639 31 59ft 0kts

Navigation Log

Ident Type
Flight plan parsing failed, navigation log unavailable